Equality — ODTX — position and weather

sailwx.info

Track history (hours):
 
Tides and Currents Weather Stations Pressure Air Temp Water Temp Dewpoint Dewpoint Depression Visibility Wind Speed Wind Dir Waves Ship Positions

Equality

Last reported at 2016-May-28 01:25 UTC. Time now 2016-May-28 20:38 UTC.
Position N 37°39' E 010°01'.

Length 124 m; draft 4.7 m.

Type: Cargo ship. MMSI: 450501000.

Date/timePositionNaut miles runAvg speedWind from/ knotsBaromVisibWave heightAir tempDewpointWater temp
2016-May-28 01:25N 37°39' E 010°01'6810.9
2016-May-27 19:11N 37°21' E 011°23'1311.8
2016-May-27 18:04N 37°14' E 011°37'611.5
2016-May-27 17:34N 37°11' E 011°43'1211.8
2016-May-27 16:33N 37°04' E 011°55'1111.5
2016-May-27 15:34N 36°58' E 012°08'1211.5
2016-May-27 14:33N 36°51' E 012°19'1111.5
2016-May-27 13:34N 36°41' E 012°27'1211.5
2016-May-27 12:33N 36°32' E 012°35'1211.7
2016-May-27 11:33N 36°22' E 012°43'1212.0
2016-May-27 10:32N 36°11' E 012°51'1212.0
2016-May-27 09:33N 36°02' E 012°59'1212.0
2016-May-27 08:34N 35°52' E 013°07'1211.8
2016-May-27 07:34N 35°42' E 013°16'1111.4
2016-May-27 06:34N 35°32' E 013°22'1111.4
2016-May-27 05:34N 35°22' E 013°28'1111.5
2016-May-27 04:34N 35°11' E 013°34'1211.7
2016-May-27 03:34N 35°01' E 013°41'1211.5
2016-May-27 02:32N 34°51' E 013°48'1111.4
2016-May-27 01:33N 34°41' E 013°54'1211.7
2016-May-27 00:33N 34°30' E 013°60'1711.9
2016-May-26 23:09N 34°15' E 014°09'712.0
2016-May-26 22:33N 34°08' E 014°12'1411.9
2016-May-26 21:20N 33°56' E 014°20'1312.0
2016-May-26 20:17N 33°44' E 014°27'912.2
2016-May-26 19:33N 33°36' E 014°32'1212.2
2016-May-26 18:33N 33°25' E 014°38'1212.2
2016-May-26 17:33N 33°14' E 014°45'1211.7
2016-May-26 16:33N 33°04' E 014°51'1111.4
2016-May-26 15:34N 32°54' E 014°57'1212.2
2016-May-26 14:33N 32°43' E 015°03'1211.9
2016-May-26 13:33N 32°32' E 015°09'1010.5
2016-May-26 12:34N 32°22' E 015°14'0 0.3
2016-May-26 11:16N 32°22' E 015°13'0 0.0
2016-May-26 10:11N 32°22' E 015°13'0 0.0
2016-May-26 01:28N 32°22' E 015°13'0 0.0
2016-May-26 00:29N 32°22' E 015°13'0 0.0
2016-May-25 23:30N 32°22' E 015°13'0 0.0
2016-May-25 22:13N 32°22' E 015°13'0 0.0
2016-May-25 21:25N 32°22' E 015°13'0 0.0
2016-May-25 19:14N 32°22' E 015°13'0 0.0
2016-May-25 18:30N 32°22' E 015°13'0 0.0
2016-May-25 17:28N 32°22' E 015°13'0 0.0
2016-May-25 10:32N 32°22' E 015°13'0 0.0
2016-May-25 09:33N 32°22' E 015°13'0 0.0
2016-May-24 21:29N 32°22' E 015°13'0 0.0
2016-May-24 20:09N 32°22' E 015°13'0 0.0
2016-May-24 19:27N 32°22' E 015°13'0 0.0
2016-May-24 18:31N 32°22' E 015°13'25 0.9
2016-May-23 14:33N 32°45' E 015°02'3310.5
2016-May-23 11:25N 33°15' E 014°45'2510.6
2016-May-23 09:05N 33°37' E 014°32'4810.6
2016-May-23 04:33N 34°19' E 014°05'3610.6
2016-May-23 01:06N 34°52' E 013°45'610.4
2016-May-23 00:31N 34°58' E 013°42'1010.3
2016-May-22 23:33N 35°06' E 013°37'1010.2
2016-May-22 22:33N 35°15' E 013°31'1110.3
2016-May-22 21:32N 35°25' E 013°25'1010.6
2016-May-22 20:33N 35°34' E 013°19'1010.4
2016-May-22 19:33N 35°43' E 013°13'1010.4
2016-May-22 18:33N 35°53' E 013°07'1010.0
2016-May-22 17:33N 36°01' E 013°02'1010.1
2016-May-22 16:33N 36°10' E 012°55'1010.0
2016-May-22 15:33N 36°18' E 012°48'1010.1
2016-May-22 14:33N 36°26' E 012°41'1010.1
2016-May-22 13:33N 36°35' E 012°33'1010.1
2016-May-22 12:33N 36°43' E 012°26'1010.1
2016-May-22 11:33N 36°51' E 012°19'3110.3
2016-May-22 08:33N 37°06' E 011°45'10 9.9
2016-May-22 07:32N 37°11' E 011°34'13810.6
2016-May-21 18:32N 37°36' E 008°43'1111.1
2016-May-21 17:33N 37°37' E 008°29'42410.8
2016-May-20 02:24N 37°29' W 000°26'1010.4
2016-May-20 01:24N 37°29' W 000°39'9 9.9
2016-May-20 00:31N 37°29' W 000°50'  
Track history (hours):
 
Tides and Currents Weather Stations Pressure Air Temp Water Temp Dewpoint Dewpoint Depression Visibility Wind Speed Wind Dir Waves Ship Positions

Equality

Last reported at 2016-May-28 01:25 UTC. Time now 2016-May-28 20:38 UTC.
Position N 37°39' E 010°01'.

Length 124 m; draft 4.7 m.

Type: Cargo ship. MMSI: 450501000.

Date/timePositionNaut miles runAvg speedWind from/ knotsBaromVisibWave heightAir tempDewpointWater temp
2016-May-28 01:25N 37°39' E 010°01'6810.9
2016-May-27 19:11N 37°21' E 011°23'1311.8
2016-May-27 18:04N 37°14' E 011°37'611.5
2016-May-27 17:34N 37°11' E 011°43'1211.8
2016-May-27 16:33N 37°04' E 011°55'1111.5
2016-May-27 15:34N 36°58' E 012°08'1211.5
2016-May-27 14:33N 36°51' E 012°19'1111.5
2016-May-27 13:34N 36°41' E 012°27'1211.5
2016-May-27 12:33N 36°32' E 012°35'1211.7
2016-May-27 11:33N 36°22' E 012°43'1212.0
2016-May-27 10:32N 36°11' E 012°51'1212.0
2016-May-27 09:33N 36°02' E 012°59'1212.0
2016-May-27 08:34N 35°52' E 013°07'1211.8
2016-May-27 07:34N 35°42' E 013°16'1111.4
2016-May-27 06:34N 35°32' E 013°22'1111.4
2016-May-27 05:34N 35°22' E 013°28'1111.5
2016-May-27 04:34N 35°11' E 013°34'1211.7
2016-May-27 03:34N 35°01' E 013°41'1211.5
2016-May-27 02:32N 34°51' E 013°48'1111.4
2016-May-27 01:33N 34°41' E 013°54'1211.7
2016-May-27 00:33N 34°30' E 013°60'1711.9
2016-May-26 23:09N 34°15' E 014°09'712.0
2016-May-26 22:33N 34°08' E 014°12'1411.9
2016-May-26 21:20N 33°56' E 014°20'1312.0
2016-May-26 20:17N 33°44' E 014°27'912.2
2016-May-26 19:33N 33°36' E 014°32'1212.2
2016-May-26 18:33N 33°25' E 014°38'1212.2
2016-May-26 17:33N 33°14' E 014°45'1211.7
2016-May-26 16:33N 33°04' E 014°51'1111.4
2016-May-26 15:34N 32°54' E 014°57'1212.2
2016-May-26 14:33N 32°43' E 015°03'1211.9
2016-May-26 13:33N 32°32' E 015°09'1010.5
2016-May-26 12:34N 32°22' E 015°14'0 0.3
2016-May-26 11:16N 32°22' E 015°13'0 0.0
2016-May-26 10:11N 32°22' E 015°13'0 0.0
2016-May-26 01:28N 32°22' E 015°13'0 0.0
2016-May-26 00:29N 32°22' E 015°13'0 0.0
2016-May-25 23:30N 32°22' E 015°13'0 0.0
2016-May-25 22:13N 32°22' E 015°13'0 0.0
2016-May-25 21:25N 32°22' E 015°13'0 0.0
2016-May-25 19:14N 32°22' E 015°13'0 0.0
2016-May-25 18:30N 32°22' E 015°13'0 0.0
2016-May-25 17:28N 32°22' E 015°13'0 0.0
2016-May-25 10:32N 32°22' E 015°13'0 0.0
2016-May-25 09:33N 32°22' E 015°13'0 0.0
2016-May-24 21:29N 32°22' E 015°13'0 0.0
2016-May-24 20:09N 32°22' E 015°13'0 0.0
2016-May-24 19:27N 32°22' E 015°13'0 0.0
2016-May-24 18:31N 32°22' E 015°13'25 0.9
2016-May-23 14:33N 32°45' E 015°02'3310.5
2016-May-23 11:25N 33°15' E 014°45'2510.6
2016-May-23 09:05N 33°37' E 014°32'4810.6
2016-May-23 04:33N 34°19' E 014°05'3610.6
2016-May-23 01:06N 34°52' E 013°45'610.4
2016-May-23 00:31N 34°58' E 013°42'1010.3
2016-May-22 23:33N 35°06' E 013°37'1010.2
2016-May-22 22:33N 35°15' E 013°31'1110.3
2016-May-22 21:32N 35°25' E 013°25'1010.6
2016-May-22 20:33N 35°34' E 013°19'1010.4
2016-May-22 19:33N 35°43' E 013°13'1010.4
2016-May-22 18:33N 35°53' E 013°07'1010.0
2016-May-22 17:33N 36°01' E 013°02'1010.1
2016-May-22 16:33N 36°10' E 012°55'1010.0
2016-May-22 15:33N 36°18' E 012°48'1010.1
2016-May-22 14:33N 36°26' E 012°41'1010.1
2016-May-22 13:33N 36°35' E 012°33'1010.1
2016-May-22 12:33N 36°43' E 012°26'1010.1
2016-May-22 11:33N 36°51' E 012°19'3110.3
2016-May-22 08:33N 37°06' E 011°45'10 9.9
2016-May-22 07:32N 37°11' E 011°34'13810.6
2016-May-21 18:32N 37°36' E 008°43'1111.1
2016-May-21 17:33N 37°37' E 008°29'42410.8
2016-May-20 02:24N 37°29' W 000°26'1010.4
2016-May-20 01:24N 37°29' W 000°39'9 9.9
2016-May-20 00:31N 37°29' W 000°50'  

Dump ship's entire track history